sensor_id;sensor_type;location;lat;lon;timestamp;pressure;altitude;pressure_sealevel;temperature;humidity
35553;BME280;21656;46.054;13.614;2023-02-04T07:42:23;101010.13;;;1.49;100.00
35553;BME280;21656;46.054;13.614;2023-02-04T07:44:49;101014.09;;;1.36;100.00
35553;BME280;21656;46.054;13.614;2023-02-04T07:47:14;101006.81;;;1.42;100.00
35553;BME280;21656;46.054;13.614;2023-02-04T07:49:39;101009.47;;;1.42;100.00
35553;BME280;21656;46.054;13.614;2023-02-04T07:52:05;101012.31;;;1.36;100.00
35553;BME280;21656;46.054;13.614;2023-02-04T07:54:30;101002.56;;;1.37;100.00
35553;BME280;21656;46.054;13.614;2023-02-04T07:56:56;101018.78;;;1.54;100.00
35553;BME280;21656;46.054;13.614;2023-02-04T07:59:21;101021.50;;;1.52;100.00
35553;BME280;21656;46.054;13.614;2023-02-04T08:01:47;101013.03;;;1.68;100.00
35553;BME280;21656;46.054;13.614;2023-02-04T08:04:14;100992.16;;;1.82;100.00
35553;BME280;21656;46.054;13.614;2023-02-04T08:06:39;101002.63;;;1.87;100.00
35553;BME280;21656;46.054;13.614;2023-02-04T08:09:04;101007.06;;;1.86;100.00
35553;BME280;21656;46.054;13.614;2023-02-04T08:11:30;101007.72;;;1.93;100.00
35553;BME280;21656;46.054;13.614;2023-02-04T08:13:55;100998.81;;;1.94;100.00
35553;BME280;21656;46.054;13.614;2023-02-04T08:16:20;100998.56;;;1.77;100.00
35553;BME280;21656;46.054;13.614;2023-02-04T08:18:46;101004.44;;;1.85;100.00
35553;BME280;21656;46.054;13.614;2023-02-04T08:21:11;101016.44;;;1.97;100.00
35553;BME280;21656;46.054;13.614;2023-02-04T08:23:37;101007.47;;;2.01;100.00
35553;BME280;21656;46.054;13.614;2023-02-04T08:26:09;101010.75;;;2.07;100.00
35553;BME280;21656;46.054;13.614;2023-02-04T08:28:36;101021.91;;;2.17;100.00
35553;BME280;21656;46.054;13.614;2023-02-04T08:31:03;101016.13;;;2.06;100.00
35553;BME280;21656;46.054;13.614;2023-02-04T08:33:28;101022.63;;;1.97;100.00
35553;BME280;21656;46.054;13.614;2023-02-04T08:35:54;101023.31;;;2.02;100.00
35553;BME280;21656;46.054;13.614;2023-02-04T08:38:19;101032.63;;;2.15;100.00
35553;BME280;21656;46.054;13.614;2023-02-04T08:40:44;101020.47;;;2.08;100.00
35553;BME280;21656;46.054;13.614;2023-02-04T08:43:10;101028.09;;;2.17;100.00
35553;BME280;21656;46.054;13.614;2023-02-04T08:45:35;101025.56;;;2.38;100.00
35553;BME280;21656;46.054;13.614;2023-02-04T08:48:00;101020.31;;;2.60;100.00
35553;BME280;21656;46.054;13.614;2023-02-04T08:50:26;101036.97;;;2.65;100.00
35553;BME280;21656;46.054;13.614;2023-02-04T08:52:52;101036.41;;;2.57;100.00
35553;BME280;21656;46.054;13.614;2023-02-04T08:55:18;101020.78;;;2.24;100.00
35553;BME280;21656;46.054;13.614;2023-02-04T08:57:43;101036.97;;;2.42;100.00
35553;BME280;21656;46.054;13.614;2023-02-04T09:00:10;101035.59;;;2.55;100.00
35553;BME280;21656;46.054;13.614;2023-02-04T09:02:36;101035.75;;;2.50;100.00
35553;BME280;21656;46.054;13.614;2023-02-04T09:05:01;101039.75;;;2.62;100.00
35553;BME280;21656;46.054;13.614;2023-02-04T09:07:27;101023.31;;;2.74;100.00
35553;BME280;21656;46.054;13.614;2023-02-04T09:10:23;101030.94;;;2.83;100.00
35553;BME280;21656;46.054;13.614;2023-02-04T09:12:48;101030.72;;;2.90;100.00
35553;BME280;21656;46.054;13.614;2023-02-04T09:15:14;101034.56;;;2.59;100.00
35553;BME280;21656;46.054;13.614;2023-02-04T09:17:39;101044.09;;;2.65;100.00
35553;BME280;21656;46.054;13.614;2023-02-04T09:20:09;101031.56;;;2.90;100.00
35553;BME280;21656;46.054;13.614;2023-02-04T09:22:35;101042.44;;;3.08;100.00
35553;BME280;21656;46.054;13.614;2023-02-04T09:25:02;101052.22;;;3.07;100.00
35553;BME280;21656;46.054;13.614;2023-02-04T09:27:27;101053.28;;;3.47;100.00
35553;BME280;21656;46.054;13.614;2023-02-04T09:29:52;101032.19;;;3.63;100.00
35553;BME280;21656;46.054;13.614;2023-02-04T09:32:18;101025.88;;;3.86;100.00
35553;BME280;21656;46.054;13.614;2023-02-04T09:34:43;101024.59;;;4.15;100.00
35553;BME280;21656;46.054;13.614;2023-02-04T09:37:08;101033.81;;;4.47;100.00
35553;BME280;21656;46.054;13.614;2023-02-04T09:39:34;101039.19;;;4.85;100.00
35553;BME280;21656;46.054;13.614;2023-02-04T09:41:59;101036.00;;;5.15;100.00
35553;BME280;21656;46.054;13.614;2023-02-04T09:44:26;101024.41;;;5.52;100.00
35553;BME280;21656;46.054;13.614;2023-02-04T09:46:55;101019.59;;;5.59;100.00
35553;BME280;21656;46.054;13.614;2023-02-04T09:49:21;101021.66;;;5.89;100.00
35553;BME280;21656;46.054;13.614;2023-02-04T09:51:48;101032.03;;;6.12;100.00
35553;BME280;21656;46.054;13.614;2023-02-04T09:54:16;101029.16;;;6.33;100.00
35553;BME280;21656;46.054;13.614;2023-02-04T09:56:43;101020.03;;;6.37;100.00
35553;BME280;21656;46.054;13.614;2023-02-04T09:59:46;101034.44;;;6.67;100.00
35553;BME280;21656;46.054;13.614;2023-02-04T10:02:25;101040.44;;;7.04;100.00
35553;BME280;21656;46.054;13.614;2023-02-04T10:04:54;101039.75;;;6.85;100.00
35553;BME280;21656;46.054;13.614;2023-02-04T10:07:22;101043.97;;;7.21;100.00
35553;BME280;21656;46.054;13.614;2023-02-04T10:09:51;101031.25;;;7.56;100.00
35553;BME280;21656;46.054;13.614;2023-02-04T10:12:18;101037.38;;;7.88;100.00
35553;BME280;21656;46.054;13.614;2023-02-04T10:14:44;101021.88;;;7.93;100.00
35553;BME280;21656;46.054;13.614;2023-02-04T10:17:11;101027.25;;;8.08;100.00
35553;BME280;21656;46.054;13.614;2023-02-04T10:19:38;101023.00;;;8.34;100.00
35553;BME280;21656;46.054;13.614;2023-02-04T10:22:12;101022.44;;;8.43;100.00
35553;BME280;21656;46.054;13.614;2023-02-04T10:24:40;101012.28;;;8.62;100.00
35553;BME280;21656;46.054;13.614;2023-02-04T10:27:08;101014.84;;;8.93;100.00
35553;BME280;21656;46.054;13.614;2023-02-04T10:29:34;101015.50;;;9.10;100.00
35553;BME280;21656;46.054;13.614;2023-02-04T10:31:59;101006.38;;;9.13;100.00
35553;BME280;21656;46.054;13.614;2023-02-04T10:34:37;101005.81;;;9.35;100.00
35553;BME280;21656;46.054;13.614;2023-02-04T10:37:19;101002.19;;;9.76;100.00
35553;BME280;21656;46.054;13.614;2023-02-04T10:39:45;100995.13;;;10.13;100.00
35553;BME280;21656;46.054;13.614;2023-02-04T10:42:24;100986.41;;;10.23;100.00
35553;BME280;21656;46.054;13.614;2023-02-04T10:44:50;100993.34;;;10.39;100.00
35553;BME280;21656;46.054;13.614;2023-02-04T10:47:21;100983.84;;;10.59;100.00
35553;BME280;21656;46.054;13.614;2023-02-04T10:49:58;100980.00;;;10.88;100.00
35553;BME280;21656;46.054;13.614;2023-02-04T10:52:40;100982.97;;;11.33;100.00
35553;BME280;21656;46.054;13.614;2023-02-04T10:55:12;100978.34;;;11.70;100.00
35553;BME280;21656;46.054;13.614;2023-02-04T10:57:40;100983.78;;;12.17;100.00
35553;BME280;21656;46.054;13.614;2023-02-04T11:00:24;100988.47;;;12.60;92.29
35553;BME280;21656;46.054;13.614;2023-02-04T11:03:15;100987.44;;;13.17;84.56
35553;BME280;21656;46.054;13.614;2023-02-04T11:05:43;100991.53;;;13.55;80.63
35553;BME280;21656;46.054;13.614;2023-02-04T11:10:59;100999.31;;;14.53;70.32
35553;BME280;21656;46.054;13.614;2023-02-04T11:18:51;101010.44;;;15.31;60.68
35553;BME280;21656;46.054;13.614;2023-02-04T11:27:06;101020.03;;;16.22;56.05
35553;BME280;21656;46.054;13.614;2023-02-04T11:29:34;101013.63;;;16.61;53.22
35553;BME280;21656;46.054;13.614;2023-02-04T11:34:48;101014.91;;;16.76;51.80
35553;BME280;21656;46.054;13.614;2023-02-04T11:37:32;101018.59;;;16.75;50.93
35553;BME280;21656;46.054;13.614;2023-02-04T11:39:59;101026.50;;;17.06;51.06
35553;BME280;21656;46.054;13.614;2023-02-04T11:42:31;101022.97;;;17.23;50.07
35553;BME280;21656;46.054;13.614;2023-02-04T11:45:19;101016.81;;;16.56;49.11
35553;BME280;21656;46.054;13.614;2023-02-04T11:47:45;101024.91;;;16.66;48.99
35553;BME280;21656;46.054;13.614;2023-02-04T11:50:18;101020.91;;;16.70;48.84
35553;BME280;21656;46.054;13.614;2023-02-04T11:52:45;101017.94;;;17.01;48.11
35553;BME280;21656;46.054;13.614;2023-02-04T11:55:11;101026.72;;;17.22;47.10
35553;BME280;21656;46.054;13.614;2023-02-04T11:57:38;101024.81;;;17.50;46.80
35553;BME280;21656;46.054;13.614;2023-02-04T12:00:05;101015.94;;;17.66;46.23
35553;BME280;21656;46.054;13.614;2023-02-04T12:02:44;101030.19;;;17.78;45.77
35553;BME280;21656;46.054;13.614;2023-02-04T12:05:16;101036.69;;;17.49;44.26
35553;BME280;21656;46.054;13.614;2023-02-04T12:07:43;101021.78;;;17.53;45.47
35553;BME280;21656;46.054;13.614;2023-02-04T12:10:23;101023.97;;;18.04;44.99
35553;BME280;21656;46.054;13.614;2023-02-04T12:12:52;101032.09;;;18.39;43.90
35553;BME280;21656;46.054;13.614;2023-02-04T12:15:29;101022.72;;;18.68;43.12
35553;BME280;21656;46.054;13.614;2023-02-04T12:20:26;101023.19;;;18.81;40.92
35553;BME280;21656;46.054;13.614;2023-02-04T12:22:52;101017.63;;;18.99;40.97
35553;BME280;21656;46.054;13.614;2023-02-04T12:25:17;101018.75;;;18.89;40.04
35553;BME280;21656;46.054;13.614;2023-02-04T12:27:44;101022.84;;;18.84;40.74
35553;BME280;21656;46.054;13.614;2023-02-04T12:30:10;101018.59;;;18.38;40.21
35553;BME280;21656;46.054;13.614;2023-02-04T12:32:36;101029.16;;;18.59;40.19
35553;BME280;21656;46.054;13.614;2023-02-04T12:35:02;101019.91;;;18.78;40.72
35553;BME280;21656;46.054;13.614;2023-02-04T12:37:28;101025.69;;;19.09;40.55
35553;BME280;21656;46.054;13.614;2023-02-04T12:39:54;101033.56;;;19.20;37.86
35553;BME280;21656;46.054;13.614;2023-02-04T12:42:19;101030.63;;;18.53;37.82
35553;BME280;21656;46.054;13.614;2023-02-04T12:44:44;101022.94;;;18.05;39.22
35553;BME280;21656;46.054;13.614;2023-02-04T12:47:10;101024.59;;;18.41;39.93
35553;BME280;21656;46.054;13.614;2023-02-04T12:49:35;101017.56;;;18.91;39.76
35553;BME280;21656;46.054;13.614;2023-02-04T12:52:03;101017.66;;;19.08;38.02
35553;BME280;21656;46.054;13.614;2023-02-04T12:54:29;101016.34;;;19.28;38.96
35553;BME280;21656;46.054;13.614;2023-02-04T12:56:54;101026.75;;;19.24;36.73
35553;BME280;21656;46.054;13.614;2023-02-04T12:59:23;101021.69;;;19.38;38.37
35553;BME280;21656;46.054;13.614;2023-02-04T13:01:49;101026.81;;;19.41;38.87
35553;BME280;21656;46.054;13.614;2023-02-04T13:04:14;101029.34;;;18.39;38.25
35553;BME280;21656;46.054;13.614;2023-02-04T13:06:40;101031.75;;;18.42;39.36
35553;BME280;21656;46.054;13.614;2023-02-04T13:09:05;101028.53;;;18.73;37.67
35553;BME280;21656;46.054;13.614;2023-02-04T13:11:31;101030.53;;;18.63;38.30
35553;BME280;21656;46.054;13.614;2023-02-04T13:13:56;101038.22;;;18.94;36.33
35553;BME280;21656;46.054;13.614;2023-02-04T13:16:22;101044.41;;;19.04;36.30
35553;BME280;21656;46.054;13.614;2023-02-04T13:18:49;101041.53;;;19.05;37.08
35553;BME280;21656;46.054;13.614;2023-02-04T13:21:15;101046.41;;;18.94;34.99
35553;BME280;21656;46.054;13.614;2023-02-04T13:23:41;101052.91;;;19.01;37.30
35553;BME280;21656;46.054;13.614;2023-02-04T13:26:06;101069.03;;;18.86;36.33
35553;BME280;21656;46.054;13.614;2023-02-04T13:28:36;101074.16;;;18.63;31.20
35553;BME280;21656;46.054;13.614;2023-02-04T13:31:01;101087.44;;;18.58;29.87
35553;BME280;21656;46.054;13.614;2023-02-04T13:33:27;101089.94;;;17.62;28.10
35553;BME280;21656;46.054;13.614;2023-02-04T13:35:52;101098.94;;;17.62;27.87
35553;BME280;21656;46.054;13.614;2023-02-04T13:38:18;101095.06;;;17.19;27.28
35553;BME280;21656;46.054;13.614;2023-02-04T13:40:43;101103.63;;;17.24;28.72
35553;BME280;21656;46.054;13.614;2023-02-04T13:43:08;101111.19;;;17.30;29.33
35553;BME280;21656;46.054;13.614;2023-02-04T13:45:34;101115.16;;;16.99;29.36
35553;BME280;21656;46.054;13.614;2023-02-04T13:48:00;101113.41;;;17.17;28.70
35553;BME280;21656;46.054;13.614;2023-02-04T13:50:25;101127.22;;;17.33;27.16
35553;BME280;21656;46.054;13.614;2023-02-04T13:52:51;101121.63;;;16.98;27.34
35553;BME280;21656;46.054;13.614;2023-02-04T13:55:16;101117.38;;;16.85;29.12
35553;BME280;21656;46.054;13.614;2023-02-04T13:57:42;101128.97;;;16.58;28.65
35553;BME280;21656;46.054;13.614;2023-02-04T14:00:08;101136.75;;;16.43;28.24
35553;BME280;21656;46.054;13.614;2023-02-04T14:02:34;101141.44;;;16.02;29.38
35553;BME280;21656;46.054;13.614;2023-02-04T14:04:59;101147.41;;;15.77;28.85
35553;BME280;21656;46.054;13.614;2023-02-04T14:07:25;101150.03;;;15.88;29.23
35553;BME280;21656;46.054;13.614;2023-02-04T14:09:51;101148.72;;;15.73;28.43
35553;BME280;21656;46.054;13.614;2023-02-04T14:12:18;101149.22;;;15.67;28.64
35553;BME280;21656;46.054;13.614;2023-02-04T14:14:43;101160.44;;;15.43;29.49
35553;BME280;21656;46.054;13.614;2023-02-04T14:17:09;101160.06;;;15.26;27.74
35553;BME280;21656;46.054;13.614;2023-02-04T14:19:34;101156.91;;;15.21;28.54
35553;BME280;21656;46.054;13.614;2023-02-04T14:21:59;101156.28;;;15.08;28.48
35553;BME280;21656;46.054;13.614;2023-02-04T14:24:25;101170.19;;;14.93;29.46
35553;BME280;21656;46.054;13.614;2023-02-04T14:26:50;101184.75;;;14.71;29.15
35553;BME280;21656;46.054;13.614;2023-02-04T14:29:16;101188.72;;;14.67;29.30
35553;BME280;21656;46.054;13.614;2023-02-04T14:31:42;101183.59;;;14.53;29.62
35553;BME280;21656;46.054;13.614;2023-02-04T14:34:07;101192.91;;;14.28;30.43
35553;BME280;21656;46.054;13.614;2023-02-04T14:36:32;101200.84;;;14.20;29.97
35553;BME280;21656;46.054;13.614;2023-02-04T14:38:58;101211.41;;;14.23;29.53
35553;BME280;21656;46.054;13.614;2023-02-04T14:41:23;101208.22;;;14.18;28.91
35553;BME280;21656;46.054;13.614;2023-02-04T14:43:51;101202.47;;;14.11;30.77
35553;BME280;21656;46.054;13.614;2023-02-04T14:46:18;101223.34;;;14.20;28.82
35553;BME280;21656;46.054;13.614;2023-02-04T14:48:43;101214.31;;;13.99;28.69
35553;BME280;21656;46.054;13.614;2023-02-04T14:51:10;101220.25;;;13.93;28.84
35553;BME280;21656;46.054;13.614;2023-02-04T14:53:35;101218.19;;;13.85;30.26
35553;BME280;21656;46.054;13.614;2023-02-04T14:56:01;101222.72;;;13.73;29.97
35553;BME280;21656;46.054;13.614;2023-02-04T14:58:26;101234.06;;;13.56;29.88
35553;BME280;21656;46.054;13.614;2023-02-04T15:00:52;101237.97;;;13.52;30.15
35553;BME280;21656;46.054;13.614;2023-02-04T15:03:17;101244.16;;;13.42;30.43
35553;BME280;21656;46.054;13.614;2023-02-04T15:05:42;101256.69;;;13.43;29.41
35553;BME280;21656;46.054;13.614;2023-02-04T15:08:08;101262.38;;;13.16;29.61
35553;BME280;21656;46.054;13.614;2023-02-04T15:10:34;101261.53;;;13.16;29.37
35553;BME280;21656;46.054;13.614;2023-02-04T15:12:59;101267.19;;;13.13;30.48
35553;BME280;21656;46.054;13.614;2023-02-04T15:15:25;101269.41;;;12.84;31.39
35553;BME280;21656;46.054;13.614;2023-02-04T15:21:12;101286.59;;;12.47;31.32
35553;BME280;21656;46.054;13.614;2023-02-04T15:23:38;101288.03;;;12.40;31.59
35553;BME280;21656;46.054;13.614;2023-02-04T15:26:04;101299.63;;;12.29;31.04
35553;BME280;21656;46.054;13.614;2023-02-04T15:28:29;101301.25;;;12.32;31.69
35553;BME280;21656;46.054;13.614;2023-02-04T15:30:56;101309.47;;;12.18;31.95
35553;BME280;21656;46.054;13.614;2023-02-04T15:33:21;101308.44;;;12.07;32.49
35553;BME280;21656;46.054;13.614;2023-02-04T15:35:47;101320.13;;;12.08;31.42
35553;BME280;21656;46.054;13.614;2023-02-04T15:38:12;101324.47;;;11.98;32.32
35553;BME280;21656;46.054;13.614;2023-02-04T15:40:38;101331.88;;;11.81;31.22
35553;BME280;21656;46.054;13.614;2023-02-04T15:43:03;101337.59;;;11.77;30.95
35553;BME280;21656;46.054;13.614;2023-02-04T15:45:29;101350.88;;;11.67;31.36
35553;BME280;21656;46.054;13.614;2023-02-04T15:47:55;101355.09;;;11.58;31.14
35553;BME280;21656;46.054;13.614;2023-02-04T15:50:21;101364.81;;;11.48;32.51
35553;BME280;21656;46.054;13.614;2023-02-04T15:52:46;101364.59;;;11.64;30.40
35553;BME280;21656;46.054;13.614;2023-02-04T15:55:11;101368.69;;;11.57;31.01
35553;BME280;21656;46.054;13.614;2023-02-04T15:57:37;101375.91;;;11.43;31.58
35553;BME280;21656;46.054;13.614;2023-02-04T16:00:05;101381.84;;;11.36;31.53
35553;BME280;21656;46.054;13.614;2023-02-04T16:02:31;101388.72;;;11.27;32.07
35553;BME280;21656;46.054;13.614;2023-02-04T16:04:56;101387.94;;;11.12;31.51
35553;BME280;21656;46.054;13.614;2023-02-04T16:07:22;101393.97;;;11.16;31.63
35553;BME280;21656;46.054;13.614;2023-02-04T16:09:48;101397.09;;;11.10;31.96
35553;BME280;21656;46.054;13.614;2023-02-04T16:12:13;101399.75;;;10.97;32.26
35553;BME280;21656;46.054;13.614;2023-02-04T16:14:39;101404.97;;;10.85;32.89
35553;BME280;21656;46.054;13.614;2023-02-04T16:17:04;101416.53;;;10.88;31.73
35553;BME280;21656;46.054;13.614;2023-02-04T16:19:32;101412.28;;;10.83;31.98
35553;BME280;21656;46.054;13.614;2023-02-04T16:21:58;101422.09;;;10.57;33.94
35553;BME280;21656;46.054;13.614;2023-02-04T16:24:23;101418.94;;;10.36;34.32
35553;BME280;21656;46.054;13.614;2023-02-04T16:26:49;101428.47;;;10.28;32.71
35553;BME280;21656;46.054;13.614;2023-02-04T16:29:14;101430.28;;;10.41;32.00
35553;BME280;21656;46.054;13.614;2023-02-04T16:31:40;101437.19;;;10.46;31.81
35553;BME280;21656;46.054;13.614;2023-02-04T16:34:06;101441.56;;;10.48;32.43
35553;BME280;21656;46.054;13.614;2023-02-04T16:36:31;101454.91;;;10.50;30.62
35553;BME280;21656;46.054;13.614;2023-02-04T16:38:57;101462.59;;;10.56;30.75
35553;BME280;21656;46.054;13.614;2023-02-04T16:41:24;101453.34;;;10.60;30.74
35553;BME280;21656;46.054;13.614;2023-02-04T16:43:49;101466.22;;;10.69;30.30
35553;BME280;21656;46.054;13.614;2023-02-04T16:46:15;101468.56;;;10.61;30.64
35553;BME280;21656;46.054;13.614;2023-02-04T16:48:42;101487.91;;;10.53;30.34
35553;BME280;21656;46.054;13.614;2023-02-04T16:51:07;101497.81;;;10.38;30.74
35553;BME280;21656;46.054;13.614;2023-02-04T16:53:33;101505.75;;;10.26;32.10
35553;BME280;21656;46.054;13.614;2023-02-04T16:55:58;101512.47;;;10.18;31.22
35553;BME280;21656;46.054;13.614;2023-02-04T16:58:24;101521.78;;;9.98;32.30
35553;BME280;21656;46.054;13.614;2023-02-04T17:00:50;101521.38;;;9.90;33.06
35553;BME280;21656;46.054;13.614;2023-02-04T17:03:16;101514.09;;;9.62;34.51
35553;BME280;21656;46.054;13.614;2023-02-04T17:05:41;101520.34;;;9.47;35.93
35553;BME280;21656;46.054;13.614;2023-02-04T17:08:07;101540.34;;;9.27;36.66
35553;BME280;21656;46.054;13.614;2023-02-04T17:10:33;101532.81;;;9.02;37.69
35553;BME280;21656;46.054;13.614;2023-02-04T17:13:17;101529.16;;;8.87;37.95
35553;BME280;21656;46.054;13.614;2023-02-04T17:15:42;101549.44;;;8.77;38.83
35553;BME280;21656;46.054;13.614;2023-02-04T17:18:08;101554.44;;;8.67;37.09
35553;BME280;21656;46.054;13.614;2023-02-04T17:20:34;101561.69;;;8.65;37.86
35553;BME280;21656;46.054;13.614;2023-02-04T17:22:59;101562.91;;;8.59;38.74
35553;BME280;21656;46.054;13.614;2023-02-04T17:25:24;101568.59;;;8.53;38.96
35553;BME280;21656;46.054;13.614;2023-02-04T17:27:51;101577.06;;;8.45;39.29
35553;BME280;21656;46.054;13.614;2023-02-04T17:30:19;101577.94;;;8.29;39.94
35553;BME280;21656;46.054;13.614;2023-02-04T17:32:45;101586.28;;;8.22;40.35
35553;BME280;21656;46.054;13.614;2023-02-04T17:35:10;101595.78;;;8.12;40.38
35553;BME280;21656;46.054;13.614;2023-02-04T17:37:36;101597.03;;;8.05;40.54
35553;BME280;21656;46.054;13.614;2023-02-04T17:40:02;101600.44;;;8.09;38.30
35553;BME280;21656;46.054;13.614;2023-02-04T17:42:27;101613.84;;;8.09;38.68
35553;BME280;21656;46.054;13.614;2023-02-04T17:44:53;101613.13;;;8.05;39.92
35553;BME280;21656;46.054;13.614;2023-02-04T17:47:18;101614.31;;;7.99;39.50
35553;BME280;21656;46.054;13.614;2023-02-04T17:49:44;101615.13;;;8.01;38.34
35553;BME280;21656;46.054;13.614;2023-02-04T17:52:09;101613.94;;;8.07;37.37
35553;BME280;21656;46.054;13.614;2023-02-04T17:54:35;101617.75;;;8.20;36.47
35553;BME280;21656;46.054;13.614;2023-02-04T17:57:16;101618.66;;;8.19;36.37
35553;BME280;21656;46.054;13.614;2023-02-04T17:59:42;101629.63;;;8.15;36.96
35553;BME280;21656;46.054;13.614;2023-02-04T18:02:22;101627.22;;;8.10;37.75
35553;BME280;21656;46.054;13.614;2023-02-04T18:04:50;101622.19;;;8.02;38.21
35553;BME280;21656;46.054;13.614;2023-02-04T18:07:16;101636.50;;;8.03;36.71
35553;BME280;21656;46.054;13.614;2023-02-04T18:09:41;101637.59;;;7.99;38.70
35553;BME280;21656;46.054;13.614;2023-02-04T18:12:15;101640.59;;;7.93;38.36
35553;BME280;21656;46.054;13.614;2023-02-04T18:14:43;101633.97;;;8.00;36.71
35553;BME280;21656;46.054;13.614;2023-02-04T18:17:12;101647.31;;;8.01;36.65
35553;BME280;21656;46.054;13.614;2023-02-04T18:19:38;101649.78;;;8.23;36.17
35553;BME280;21656;46.054;13.614;2023-02-04T18:22:13;101659.75;;;8.02;38.58
35553;BME280;21656;46.054;13.614;2023-02-04T18:24:42;101659.47;;;8.09;35.83
35553;BME280;21656;46.054;13.614;2023-02-04T18:27:19;101656.72;;;8.10;38.49
35553;BME280;21656;46.054;13.614;2023-02-04T18:29:47;101663.50;;;8.17;35.27
35553;BME280;21656;46.054;13.614;2023-02-04T18:32:22;101666.41;;;8.30;35.18
35553;BME280;21656;46.054;13.614;2023-02-04T18:34:54;101663.75;;;8.13;36.95
35553;BME280;21656;46.054;13.614;2023-02-04T18:37:30;101687.47;;;8.03;36.63
35553;BME280;21656;46.054;13.614;2023-02-04T18:39:59;101685.47;;;7.89;37.47
35553;BME280;21656;46.054;13.614;2023-02-04T18:42:38;101689.91;;;7.90;37.16
35553;BME280;21656;46.054;13.614;2023-02-04T18:45:28;101695.19;;;7.92;36.35
35553;BME280;21656;46.054;13.614;2023-02-04T18:47:58;101694.47;;;7.88;37.72
35553;BME280;21656;46.054;13.614;2023-02-04T18:50:28;101707.53;;;7.77;37.99
35553;BME280;21656;46.054;13.614;2023-02-04T18:52:55;101712.19;;;7.73;38.31
35553;BME280;21656;46.054;13.614;2023-02-04T18:55:23;101713.84;;;7.76;37.65
35553;BME280;21656;46.054;13.614;2023-02-04T18:57:50;101711.81;;;7.81;37.17
35553;BME280;21656;46.054;13.614;2023-02-04T19:00:27;101725.78;;;7.88;37.16
35553;BME280;21656;46.054;13.614;2023-02-04T19:10:30;101740.94;;;7.89;36.97
35553;BME280;21656;46.054;13.614;2023-02-04T19:13:18;101756.06;;;7.90;37.17
35553;BME280;21656;46.054;13.614;2023-02-04T19:15:51;101752.69;;;7.86;36.73
35553;BME280;21656;46.054;13.614;2023-02-04T19:18:28;101749.94;;;7.88;37.23
35553;BME280;21656;46.054;13.614;2023-02-04T19:21:01;101749.41;;;7.79;37.75
35553;BME280;21656;46.054;13.614;2023-02-04T19:23:34;101753.91;;;7.79;37.54
35553;BME280;21656;46.054;13.614;2023-02-04T19:26:00;101759.06;;;7.84;37.33
35553;BME280;21656;46.054;13.614;2023-02-04T19:28:29;101763.47;;;7.85;37.29
35553;BME280;21656;46.054;13.614;2023-02-04T19:31:05;101753.53;;;7.87;36.20
35553;BME280;21656;46.054;13.614;2023-02-04T19:33:35;101760.72;;;7.86;37.15
35553;BME280;21656;46.054;13.614;2023-02-04T19:36:16;101763.47;;;7.85;36.61
35553;BME280;21656;46.054;13.614;2023-02-04T19:38:45;101756.59;;;7.98;36.40
35553;BME280;21656;46.054;13.614;2023-02-04T19:46:42;101759.72;;;7.89;36.12
35553;BME280;21656;46.054;13.614;2023-02-04T19:49:19;101768.72;;;7.88;36.95
35553;BME280;21656;46.054;13.614;2023-02-04T19:51:50;101769.78;;;7.84;36.23
35553;BME280;21656;46.054;13.614;2023-02-04T19:54:21;101779.50;;;7.86;36.76
35553;BME280;21656;46.054;13.614;2023-02-04T19:56:50;101784.88;;;7.86;36.48
35553;BME280;21656;46.054;13.614;2023-02-04T19:59:28;101793.78;;;7.87;37.08
35553;BME280;21656;46.054;13.614;2023-02-04T20:04:36;101809.88;;;7.87;35.94
35553;BME280;21656;46.054;13.614;2023-02-04T20:07:14;101811.69;;;7.86;36.86
35553;BME280;21656;46.054;13.614;2023-02-04T20:09:42;101817.19;;;7.83;36.98
35553;BME280;21656;46.054;13.614;2023-02-04T20:12:14;101830.81;;;7.78;36.99
35553;BME280;21656;46.054;13.614;2023-02-04T20:14:47;101819.44;;;7.73;37.35
35553;BME280;21656;46.054;13.614;2023-02-04T20:17:22;101827.53;;;7.72;37.61
35553;BME280;21656;46.054;13.614;2023-02-04T20:19:51;101805.38;;;7.68;36.91
35553;BME280;21656;46.054;13.614;2023-02-04T20:25:19;101826.31;;;7.60;37.41
35553;BME280;21656;46.054;13.614;2023-02-04T20:27:52;101835.44;;;7.56;37.35
35553;BME280;21656;46.054;13.614;2023-02-04T20:30:29;101843.75;;;7.50;37.76
35553;BME280;21656;46.054;13.614;2023-02-04T20:32:57;101850.91;;;7.49;37.79
35553;BME280;21656;46.054;13.614;2023-02-04T20:37:59;101850.78;;;7.52;38.03
35553;BME280;21656;46.054;13.614;2023-02-04T20:40:34;101867.00;;;7.49;37.43
35553;BME280;21656;46.054;13.614;2023-02-04T20:43:01;101865.94;;;7.53;37.61
35553;BME280;21656;46.054;13.614;2023-02-04T20:50:46;101863.84;;;7.60;37.48
35553;BME280;21656;46.054;13.614;2023-02-04T20:53:48;101877.50;;;7.54;37.87
35553;BME280;21656;46.054;13.614;2023-02-04T20:58:42;101880.75;;;7.42;37.73
35553;BME280;21656;46.054;13.614;2023-02-04T21:01:25;101887.06;;;7.41;37.95
35553;BME280;21656;46.054;13.614;2023-02-04T21:03:54;101890.69;;;7.40;36.95
35553;BME280;21656;46.054;13.614;2023-02-04T21:06:24;101888.25;;;7.33;37.77
35553;BME280;21656;46.054;13.614;2023-02-04T21:08:53;101891.59;;;7.38;37.76
35553;BME280;21656;46.054;13.614;2023-02-04T21:11:19;101890.13;;;7.31;37.84
35553;BME280;21656;46.054;13.614;2023-02-04T21:13:46;101894.28;;;7.38;37.93
35553;BME280;21656;46.054;13.614;2023-02-04T21:16:11;101897.38;;;7.29;39.15
35553;BME280;21656;46.054;13.614;2023-02-04T21:18:37;101893.13;;;7.24;38.19
35553;BME280;21656;46.054;13.614;2023-02-04T21:21:04;101891.94;;;7.10;38.84